createdAt,value
2023-01-07T00:01:14.444Z,7.07
2023-01-07T00:03:31.825Z,7.45
2023-01-07T00:05:49.233Z,8.65
2023-01-07T00:08:07.575Z,9.10
2023-01-07T00:10:24.651Z,8.48
2023-01-07T00:12:42.681Z,9.50
2023-01-07T00:15:00.216Z,8.73
2023-01-07T00:17:18.714Z,7.43
2023-01-07T00:19:38.861Z,9.65
2023-01-07T00:21:56.186Z,11.50
2023-01-07T00:24:13.257Z,10.50
2023-01-07T00:26:31.244Z,9.70
2023-01-07T00:28:48.536Z,9.82
2023-01-07T00:31:05.580Z,12.00
2023-01-07T00:33:22.938Z,12.25
2023-01-07T00:35:40.250Z,10.70
2023-01-07T00:37:57.243Z,12.82
2023-01-07T00:40:14.236Z,7.95
2023-01-07T00:42:31.162Z,9.90
2023-01-07T00:44:48.174Z,9.30
2023-01-07T00:47:06.333Z,11.98
2023-01-07T00:49:23.735Z,9.23
2023-01-07T00:51:42.053Z,9.95
2023-01-07T00:53:59.329Z,8.95
2023-01-07T00:56:16.702Z,10.68
2023-01-07T00:58:33.816Z,9.75
2023-01-07T01:00:51.358Z,11.07
2023-01-07T01:03:08.604Z,10.00
2023-01-07T01:05:25.616Z,9.02
2023-01-07T01:07:48.301Z,9.55
2023-01-07T01:10:05.608Z,12.00
2023-01-07T01:12:22.606Z,8.98
2023-01-07T01:14:40.621Z,11.48
2023-01-07T01:16:58.025Z,8.98
2023-01-07T01:19:18.454Z,10.10
2023-01-07T01:21:35.632Z,10.93
2023-01-07T01:23:52.743Z,9.15
2023-01-07T01:26:09.823Z,9.23
2023-01-07T01:28:27.084Z,8.80
2023-01-07T01:30:47.303Z,9.80
2023-01-07T01:33:06.808Z,9.90
2023-01-07T01:35:23.858Z,10.70
2023-01-07T01:37:41.049Z,13.77
2023-01-07T01:39:59.857Z,7.80
2023-01-07T01:42:17.264Z,8.38
2023-01-07T01:44:35.685Z,8.35
2023-01-07T01:46:53.133Z,10.85
2023-01-07T01:49:10.275Z,8.80
2023-01-07T01:51:27.356Z,8.27
2023-01-07T01:53:45.011Z,16.50
2023-01-07T01:56:04.767Z,8.20
2023-01-07T01:58:21.946Z,8.90
2023-01-07T02:00:38.923Z,8.90
2023-01-07T02:02:57.339Z,9.95
2023-01-07T02:05:14.620Z,10.68
2023-01-07T02:07:31.640Z,10.10
2023-01-07T02:09:49.933Z,10.05
2023-01-07T02:12:07.212Z,10.32
2023-01-07T02:14:24.241Z,11.82
2023-01-07T02:16:41.682Z,9.77
2023-01-07T02:18:59.041Z,9.00
2023-01-07T02:21:16.150Z,10.13
2023-01-07T02:23:33.415Z,9.40
2023-01-07T02:25:50.467Z,13.88
2023-01-07T02:28:07.439Z,11.50
2023-01-07T02:30:24.446Z,8.88
2023-01-07T02:32:41.694Z,11.43
2023-01-07T02:35:01.480Z,9.55
2023-01-07T02:37:18.519Z,8.65
2023-01-07T02:39:36.152Z,12.27
2023-01-07T02:41:53.054Z,9.50
2023-01-07T02:44:10.555Z,12.80
2023-01-07T02:46:27.543Z,9.18
2023-01-07T02:48:44.773Z,11.38
2023-01-07T02:51:02.119Z,8.68
2023-01-07T02:53:20.208Z,14.77
2023-01-07T02:55:38.535Z,10.63
2023-01-07T02:57:56.578Z,11.65
2023-01-07T03:00:13.654Z,9.60
2023-01-07T03:02:30.636Z,10.55
2023-01-07T03:04:48.005Z,7.97
2023-01-07T03:07:05.941Z,9.85
2023-01-07T03:09:22.851Z,8.20
2023-01-07T03:11:39.910Z,10.40
2023-01-07T03:13:57.268Z,8.98
2023-01-07T03:16:14.508Z,9.32
2023-01-07T03:18:31.515Z,9.63
2023-01-07T03:20:48.549Z,10.68
2023-01-07T03:23:06.480Z,10.05
2023-01-07T03:25:23.544Z,11.90
2023-01-07T03:27:41.428Z,10.63
2023-01-07T03:29:58.725Z,8.85
2023-01-07T03:32:16.019Z,8.15
2023-01-07T03:34:34.234Z,10.65
2023-01-07T03:36:51.499Z,11.75
2023-01-07T03:39:08.718Z,10.50
2023-01-07T03:41:25.673Z,11.10
2023-01-07T03:43:43.713Z,14.70
2023-01-07T03:46:00.799Z,9.02
2023-01-07T03:48:17.824Z,11.85
2023-01-07T03:50:35.218Z,12.10
2023-01-07T03:52:52.257Z,13.30
2023-01-07T03:55:09.551Z,11.75
2023-01-07T03:57:26.635Z,11.23
2023-01-07T03:59:43.876Z,13.75
2023-01-07T04:02:01.281Z,12.98
2023-01-07T04:04:18.360Z,13.40
2023-01-07T04:06:36.964Z,11.02
2023-01-07T04:08:54.202Z,8.55
2023-01-07T04:11:11.534Z,9.48
2023-01-07T04:13:29.931Z,10.27
2023-01-07T04:15:48.072Z,9.65
2023-01-07T04:18:05.307Z,10.10
2023-01-07T04:20:22.281Z,11.13
2023-01-07T04:22:40.202Z,9.93
2023-01-07T04:24:58.237Z,12.18
2023-01-07T04:27:15.553Z,8.73
2023-01-07T04:29:32.609Z,10.15
2023-01-07T04:31:50.836Z,10.38
2023-01-07T04:34:07.950Z,10.57
2023-01-07T04:36:25.885Z,10.80
2023-01-07T04:38:43.023Z,9.05
2023-01-07T04:41:00.382Z,8.25
2023-01-07T04:43:17.698Z,11.98
2023-01-07T04:45:34.989Z,10.15
2023-01-07T04:47:52.279Z,14.32
2023-01-07T04:50:09.326Z,13.23
2023-01-07T04:52:26.391Z,11.18
2023-01-07T04:54:43.685Z,12.15
2023-01-07T04:57:01.011Z,12.00
2023-01-07T04:59:18.072Z,9.90
2023-01-07T05:01:35.545Z,10.27
2023-01-07T05:03:52.919Z,10.68
2023-01-07T05:06:10.192Z,10.98
2023-01-07T05:08:27.284Z,9.88
2023-01-07T05:10:44.633Z,9.43
2023-01-07T05:13:01.579Z,9.13
2023-01-07T05:15:18.912Z,10.70
2023-01-07T05:17:36.929Z,9.48
2023-01-07T05:19:54.224Z,7.88
2023-01-07T05:22:12.492Z,9.05
2023-01-07T05:24:29.545Z,9.07
2023-01-07T05:26:47.417Z,8.60
2023-01-07T05:29:04.403Z,9.25
2023-01-07T05:31:21.516Z,9.77
2023-01-07T05:33:38.834Z,9.32
2023-01-07T05:35:56.071Z,8.15
2023-01-07T05:38:15.004Z,7.78
2023-01-07T05:40:32.281Z,9.55
2023-01-07T05:42:49.229Z,6.95
2023-01-07T05:45:09.555Z,8.27
2023-01-07T05:47:26.880Z,11.52
2023-01-07T05:49:45.073Z,10.27
2023-01-07T05:52:02.351Z,9.32
2023-01-07T05:54:19.368Z,12.95
2023-01-07T05:56:36.337Z,8.88
2023-01-07T05:58:53.285Z,8.68
2023-01-07T06:01:10.380Z,9.02
2023-01-07T06:03:27.846Z,12.95
2023-01-07T06:05:44.930Z,9.05
2023-01-07T06:08:02.234Z,11.45
2023-01-07T06:10:19.248Z,9.68
2023-01-07T06:12:37.552Z,9.90
2023-01-07T06:14:54.559Z,9.73
2023-01-07T06:17:11.542Z,8.95
2023-01-07T06:19:29.623Z,8.98
2023-01-07T06:21:46.920Z,7.75
2023-01-07T06:24:03.976Z,10.32
2023-01-07T06:26:21.192Z,11.35
2023-01-07T06:28:39.524Z,13.68
2023-01-07T06:30:56.942Z,10.48
2023-01-07T06:33:15.041Z,9.70
2023-01-07T06:35:32.343Z,8.48
2023-01-07T06:37:49.383Z,11.35
2023-01-07T06:40:07.293Z,10.38
2023-01-07T06:42:24.580Z,11.70
2023-01-07T06:44:41.615Z,8.73
2023-01-07T06:46:58.845Z,10.30
2023-01-07T06:49:15.784Z,8.35
2023-01-07T06:51:34.085Z,9.07
2023-01-07T06:53:52.110Z,8.63
2023-01-07T06:56:09.067Z,9.35
2023-01-07T06:58:26.557Z,8.45
2023-01-07T07:00:43.916Z,8.27
2023-01-07T07:03:00.864Z,8.98
2023-01-07T07:05:18.209Z,10.40
2023-01-07T07:07:35.569Z,12.73
2023-01-07T07:09:52.691Z,7.30
2023-01-07T07:12:10.030Z,9.75
2023-01-07T07:14:27.073Z,8.50
2023-01-07T07:16:44.322Z,16.65
2023-01-07T07:19:02.386Z,11.75
2023-01-07T07:21:19.439Z,9.57
2023-01-07T07:23:36.487Z,9.95
2023-01-07T07:25:53.786Z,8.52
2023-01-07T07:28:12.075Z,9.25
2023-01-07T07:33:10.697Z,10.55
2023-01-07T07:35:28.020Z,9.50
2023-01-07T07:37:46.276Z,9.50
2023-01-07T07:40:03.536Z,8.98
2023-01-07T07:42:20.517Z,11.10
2023-01-07T07:44:37.894Z,12.00
2023-01-07T07:46:56.281Z,8.93
2023-01-07T07:49:13.271Z,8.93
2023-01-07T07:51:30.325Z,9.18
2023-01-07T07:53:47.403Z,9.00
2023-01-07T07:56:05.454Z,9.20
2023-01-07T07:58:22.763Z,8.82
2023-01-07T08:00:39.734Z,10.30
2023-01-07T08:02:56.816Z,13.43
2023-01-07T08:05:14.247Z,8.85
2023-01-07T08:07:32.068Z,9.52
2023-01-07T08:09:51.638Z,8.68
2023-01-07T08:12:09.845Z,9.23
2023-01-07T08:14:27.201Z,10.45
2023-01-07T08:16:46.602Z,9.20
2023-01-07T08:19:03.908Z,9.02
2023-01-07T08:21:20.950Z,10.20
2023-01-07T08:23:39.348Z,8.93
2023-01-07T08:25:56.726Z,9.73
2023-01-07T08:28:15.014Z,7.00
2023-01-07T08:30:32.359Z,6.93
2023-01-07T08:32:49.503Z,7.65
2023-01-07T08:35:06.860Z,5.93
2023-01-07T08:37:24.171Z,5.88
2023-01-07T08:39:41.768Z,3.35
2023-01-07T08:41:58.870Z,5.03
2023-01-07T08:44:16.217Z,5.75
2023-01-07T08:46:33.260Z,7.10
2023-01-07T08:48:51.256Z,4.65
2023-01-07T08:51:08.647Z,5.00
2023-01-07T08:53:25.945Z,4.72
2023-01-07T08:55:44.227Z,4.32
2023-01-07T08:58:01.221Z,5.30
2023-01-07T09:00:18.582Z,3.95
2023-01-07T09:02:35.619Z,4.75
2023-01-07T09:04:53.613Z,4.07
2023-01-07T09:07:10.939Z,4.00
2023-01-07T09:09:28.306Z,4.28
2023-01-07T09:11:45.339Z,6.20
2023-01-07T09:14:02.640Z,3.95
2023-01-07T09:16:20.035Z,4.80
2023-01-07T09:18:39.372Z,5.93
2023-01-07T09:20:56.438Z,4.57
2023-01-07T09:23:13.424Z,5.22
2023-01-07T09:25:30.399Z,4.20
2023-01-07T09:27:47.481Z,3.60
2023-01-07T09:30:04.614Z,5.95
2023-01-07T09:32:21.718Z,3.67
2023-01-07T09:34:38.743Z,3.67
2023-01-07T09:36:57.171Z,3.28
2023-01-07T09:39:14.212Z,3.28
2023-01-07T09:41:31.562Z,2.30
2023-01-07T09:44:00.534Z,2.47
2023-01-07T09:46:19.430Z,2.08
2023-01-07T09:48:37.794Z,1.88
2023-01-07T09:50:54.825Z,3.28
2023-01-07T09:53:15.398Z,1.70
2023-01-07T09:55:33.525Z,3.45
2023-01-07T09:57:50.553Z,1.23
2023-01-07T10:00:07.640Z,1.33
2023-01-07T10:02:24.919Z,1.98
2023-01-07T10:04:42.227Z,1.20
2023-01-07T10:06:59.307Z,3.58
2023-01-07T10:09:16.649Z,2.25
2023-01-07T10:11:34.983Z,2.30
2023-01-07T10:13:52.119Z,1.98
2023-01-07T10:16:09.362Z,2.10
2023-01-07T10:18:27.280Z,2.05
2023-01-07T10:20:45.313Z,1.77
2023-01-07T10:23:02.325Z,1.40
2023-01-07T10:25:19.392Z,2.05
2023-01-07T10:27:37.653Z,2.05
2023-01-07T10:29:54.918Z,3.03
2023-01-07T10:32:13.019Z,1.20
2023-01-07T10:34:31.412Z,2.03
2023-01-07T10:36:48.793Z,1.98
2023-01-07T10:39:05.909Z,1.42
2023-01-07T10:41:23.025Z,1.42
2023-01-07T10:43:40.298Z,1.75
2023-01-07T10:45:57.987Z,3.40
2023-01-07T10:48:15.169Z,1.30
2023-01-07T10:50:33.336Z,2.05
2023-01-07T10:52:50.311Z,1.52
2023-01-07T10:55:07.594Z,1.83
2023-01-07T10:57:24.859Z,1.50
2023-01-07T10:59:41.943Z,1.90
2023-01-07T11:01:59.500Z,2.63
2023-01-07T11:04:17.699Z,1.95
2023-01-07T11:06:34.716Z,2.95
2023-01-07T11:08:52.384Z,1.52
2023-01-07T11:11:09.351Z,2.20
2023-01-07T11:13:28.589Z,2.00
2023-01-07T11:15:45.795Z,3.03
2023-01-07T11:18:02.964Z,1.83
2023-01-07T11:20:20.259Z,1.20
2023-01-07T11:22:37.297Z,2.50
2023-01-07T11:24:54.575Z,2.08
2023-01-07T11:27:11.563Z,2.65
2023-01-07T11:29:28.668Z,2.67
2023-01-07T11:31:46.052Z,2.17
2023-01-07T11:34:04.617Z,1.80
2023-01-07T11:36:21.941Z,3.08
2023-01-07T11:38:40.015Z,3.45
2023-01-07T11:40:59.961Z,2.20
2023-01-07T11:43:18.041Z,3.05
2023-01-07T11:45:36.257Z,3.55
2023-01-07T11:47:53.582Z,2.67
2023-01-07T11:50:11.503Z,3.00
2023-01-07T11:52:28.809Z,3.17
2023-01-07T11:54:45.796Z,3.17
2023-01-07T11:57:03.081Z,3.03
2023-01-07T11:59:20.842Z,2.30
2023-01-07T12:01:38.902Z,2.78
2023-01-07T12:03:55.994Z,3.15
2023-01-07T12:06:13.119Z,4.75
2023-01-07T12:08:30.543Z,2.20
2023-01-07T12:10:47.987Z,3.30
2023-01-07T12:13:05.364Z,3.25
2023-01-07T12:15:24.375Z,2.80
2023-01-07T12:17:41.776Z,3.55
2023-01-07T12:19:58.807Z,5.72
2023-01-07T12:22:16.012Z,3.20
2023-01-07T12:24:33.070Z,5.30
2023-01-07T12:26:50.453Z,3.10
2023-01-07T12:29:07.483Z,3.00
2023-01-07T12:31:27.284Z,4.95
2023-01-07T12:33:44.465Z,3.28
2023-01-07T12:36:01.639Z,2.88
2023-01-07T12:38:19.031Z,2.88
2023-01-07T12:40:37.245Z,3.38
2023-01-07T12:42:54.313Z,3.67
2023-01-07T12:45:11.417Z,3.72
2023-01-07T12:47:30.420Z,3.38
2023-01-07T12:49:50.128Z,3.55
2023-01-07T12:52:10.030Z,4.13
2023-01-07T12:54:27.163Z,5.15
2023-01-07T12:56:44.437Z,5.55
2023-01-07T12:59:01.606Z,4.70
2023-01-07T13:01:18.981Z,4.38
2023-01-07T13:03:36.150Z,8.00
2023-01-07T13:05:53.465Z,17.38
2023-01-07T13:08:10.461Z,9.93
2023-01-07T13:10:27.936Z,20.02
2023-01-07T13:12:45.607Z,34.95
2023-01-07T13:15:03.811Z,17.92
2023-01-07T13:17:20.994Z,17.50
2023-01-07T13:19:38.285Z,24.65
2023-01-07T13:21:55.268Z,35.08
2023-01-07T13:24:12.610Z,26.77
2023-01-07T13:26:30.064Z,24.40
2023-01-07T13:28:47.177Z,11.48
2023-01-07T13:31:04.223Z,28.02
2023-01-07T13:33:21.689Z,54.90
2023-01-07T13:35:39.171Z,34.58
2023-01-07T13:37:56.616Z,30.60
2023-01-07T13:40:13.621Z,31.80
2023-01-07T13:42:30.932Z,28.17
2023-01-07T13:44:47.901Z,17.02
2023-01-07T13:47:05.555Z,23.25
2023-01-07T13:49:23.639Z,52.40
2023-01-07T13:51:41.059Z,30.35
2023-01-07T13:53:58.411Z,36.63
2023-01-07T13:56:16.542Z,30.92
2023-01-07T13:58:34.008Z,25.30
2023-01-07T14:00:51.091Z,16.27
2023-01-07T14:03:08.162Z,10.73
2023-01-07T14:05:25.547Z,12.18
2023-01-07T14:07:42.795Z,12.25
2023-01-07T14:09:59.662Z,7.47
2023-01-07T14:12:18.214Z,6.35
2023-01-07T14:14:35.667Z,6.13
2023-01-07T14:16:52.944Z,7.65
2023-01-07T14:19:09.985Z,8.68
2023-01-07T14:21:27.523Z,28.98
2023-01-07T14:23:44.561Z,46.88
2023-01-07T14:26:02.988Z,22.25
2023-01-07T14:28:19.994Z,16.38
2023-01-07T14:30:37.058Z,10.05
2023-01-07T14:32:54.480Z,7.78
2023-01-07T14:35:12.435Z,5.93
2023-01-07T14:37:29.838Z,12.00
2023-01-07T14:39:47.245Z,62.15
2023-01-07T14:42:05.113Z,30.27
2023-01-07T14:44:22.584Z,27.40
2023-01-07T14:46:39.710Z,23.70
2023-01-07T14:48:57.071Z,17.02
2023-01-07T14:51:14.375Z,10.27
2023-01-07T14:53:31.644Z,9.52
2023-01-07T14:55:49.633Z,6.15
2023-01-07T14:58:07.099Z,8.82
2023-01-07T15:00:24.403Z,11.77
2023-01-07T15:02:41.467Z,16.67
2023-01-07T15:04:58.833Z,15.85
2023-01-07T15:07:16.225Z,11.43
2023-01-07T15:09:34.554Z,7.43
2023-01-07T15:11:51.621Z,7.80
2023-01-07T15:14:09.882Z,7.30
2023-01-07T15:16:27.721Z,6.45
2023-01-07T15:18:44.887Z,5.63
2023-01-07T15:21:03.033Z,6.85
2023-01-07T15:23:20.504Z,4.95
2023-01-07T15:25:37.693Z,9.02
2023-01-07T15:27:54.773Z,7.90
2023-01-07T15:30:12.109Z,7.55
2023-01-07T15:32:29.063Z,7.18
2023-01-07T15:34:46.138Z,7.28
2023-01-07T15:37:04.511Z,6.43
2023-01-07T15:39:21.684Z,15.50
2023-01-07T15:41:38.959Z,10.90
2023-01-07T15:43:55.927Z,8.18
2023-01-07T15:46:12.905Z,9.57
2023-01-07T15:48:30.485Z,8.00
2023-01-07T15:50:47.551Z,6.20
2023-01-07T15:53:04.682Z,21.77
2023-01-07T15:55:22.017Z,10.77
2023-01-07T15:57:39.082Z,8.15
2023-01-07T15:59:56.550Z,8.55
2023-01-07T16:02:14.877Z,8.48
2023-01-07T16:04:34.493Z,8.80
2023-01-07T16:06:52.732Z,6.75
2023-01-07T16:09:09.732Z,5.57
2023-01-07T16:11:26.717Z,7.85
2023-01-07T16:13:43.754Z,6.80
2023-01-07T16:16:01.841Z,14.82
2023-01-07T16:18:19.253Z,5.47
2023-01-07T16:20:36.575Z,7.47
2023-01-07T16:22:53.595Z,5.78
2023-01-07T16:25:10.563Z,5.75
2023-01-07T16:27:31.351Z,10.68
2023-01-07T16:29:48.603Z,8.45
2023-01-07T16:32:05.739Z,11.95
2023-01-07T16:34:22.592Z,20.05
2023-01-07T16:36:39.554Z,21.50
2023-01-07T16:38:56.623Z,21.80
2023-01-07T16:41:13.643Z,21.80
2023-01-07T16:43:30.722Z,20.40
2023-01-07T16:45:48.036Z,16.88
2023-01-07T16:48:06.443Z,14.93
2023-01-07T16:50:23.383Z,15.13
2023-01-07T16:52:40.283Z,14.13
2023-01-07T16:54:57.587Z,18.85
2023-01-07T16:57:14.950Z,20.05
2023-01-07T16:59:31.936Z,18.13
2023-01-07T17:01:49.138Z,18.33
2023-01-07T17:04:07.689Z,16.98
2023-01-07T17:06:24.852Z,20.30
2023-01-07T17:08:41.914Z,18.05
2023-01-07T17:10:58.974Z,16.73
2023-01-07T17:13:17.068Z,15.90
2023-01-07T17:15:34.134Z,16.95
2023-01-07T17:17:51.058Z,14.63
2023-01-07T17:20:08.145Z,15.93
2023-01-07T17:22:25.390Z,17.48
2023-01-07T17:24:42.691Z,15.00
2023-01-07T17:26:59.731Z,16.05
2023-01-07T17:29:17.012Z,16.73
2023-01-07T17:31:34.118Z,17.15
2023-01-07T17:33:51.644Z,16.17
2023-01-07T17:36:09.774Z,16.63
2023-01-07T17:38:28.609Z,12.77
2023-01-07T17:40:45.655Z,11.38
2023-01-07T17:43:02.533Z,12.05
2023-01-07T17:45:20.893Z,11.82
2023-01-07T17:47:37.903Z,11.80
2023-01-07T17:49:56.162Z,12.70
2023-01-07T17:52:13.648Z,12.68
2023-01-07T17:54:30.986Z,12.35
2023-01-07T17:56:48.076Z,9.77
2023-01-07T17:59:05.024Z,9.43
2023-01-07T18:01:22.369Z,9.65
2023-01-07T18:03:40.739Z,8.68
2023-01-07T18:05:59.089Z,7.30
2023-01-07T18:08:18.365Z,8.40
2023-01-07T18:10:35.397Z,8.50
2023-01-07T18:12:52.730Z,7.25
2023-01-07T18:15:09.759Z,6.53
2023-01-07T18:17:26.696Z,9.90
2023-01-07T18:19:43.694Z,9.95
2023-01-07T18:22:00.557Z,8.93
2023-01-07T18:24:18.092Z,8.70
2023-01-07T18:26:35.410Z,11.35
2023-01-07T18:28:52.513Z,10.50
2023-01-07T18:31:09.524Z,11.30
2023-01-07T18:33:26.455Z,8.07
2023-01-07T18:35:43.840Z,8.82
2023-01-07T18:38:00.893Z,6.95
2023-01-07T18:40:18.242Z,9.30
2023-01-07T18:42:36.315Z,11.30
2023-01-07T18:44:53.359Z,17.48
2023-01-07T18:47:10.438Z,16.92
2023-01-07T18:49:27.798Z,20.13
2023-01-07T18:51:45.133Z,14.25
2023-01-07T18:54:02.220Z,12.52
2023-01-07T18:56:19.207Z,8.65
2023-01-07T18:58:37.222Z,8.18
2023-01-07T19:00:54.313Z,12.52
2023-01-07T19:03:11.793Z,15.00
2023-01-07T19:05:28.726Z,13.15
2023-01-07T19:07:45.781Z,12.80
2023-01-07T19:10:03.119Z,13.63
2023-01-07T19:12:20.164Z,14.25
2023-01-07T19:14:37.559Z,17.55
2023-01-07T19:16:55.601Z,16.50
2023-01-07T19:19:12.603Z,17.55
2023-01-07T19:21:29.693Z,23.48
2023-01-07T19:23:47.019Z,20.63
2023-01-07T19:26:03.959Z,21.35
2023-01-07T19:28:21.906Z,18.73
2023-01-07T19:30:39.033Z,17.98
2023-01-07T19:32:56.201Z,13.90
2023-01-07T19:35:13.250Z,13.88
2023-01-07T19:37:31.655Z,15.50
2023-01-07T19:39:49.704Z,15.07
2023-01-07T19:42:07.116Z,16.95
2023-01-07T19:44:24.204Z,21.30
2023-01-07T19:46:41.229Z,22.00
2023-01-07T19:48:58.270Z,21.30
2023-01-07T19:51:16.247Z,20.15
2023-01-07T19:53:33.303Z,19.80
2023-01-07T19:55:51.307Z,19.75
2023-01-07T19:58:08.464Z,16.48
2023-01-07T20:00:25.636Z,16.52
2023-01-07T20:02:42.959Z,16.50
2023-01-07T20:05:00.255Z,13.80
2023-01-07T20:07:17.148Z,15.90
2023-01-07T20:09:35.272Z,14.63
2023-01-07T20:11:53.307Z,16.05
2023-01-07T20:14:10.947Z,17.85
2023-01-07T20:16:28.158Z,17.95
2023-01-07T20:18:45.588Z,19.90
2023-01-07T20:21:04.780Z,17.25
2023-01-07T20:23:21.873Z,15.45
2023-01-07T20:25:38.930Z,12.75
2023-01-07T20:27:56.251Z,15.70
2023-01-07T20:30:13.229Z,15.43
2023-01-07T20:32:30.521Z,14.40
2023-01-07T20:34:48.887Z,13.48
2023-01-07T20:37:07.155Z,16.08
2023-01-07T20:39:24.446Z,18.35
2023-01-07T20:41:41.803Z,18.52
2023-01-07T20:43:58.899Z,19.20
2023-01-07T20:46:16.331Z,19.23
2023-01-07T20:48:36.034Z,18.83
2023-01-07T20:50:53.233Z,17.48
2023-01-07T20:53:10.508Z,18.38
2023-01-07T20:55:28.819Z,19.70
2023-01-07T20:57:49.359Z,16.90
2023-01-07T21:00:06.397Z,16.05
2023-01-07T21:02:23.936Z,14.60
2023-01-07T21:04:41.106Z,15.95
2023-01-07T21:06:58.173Z,15.98
2023-01-07T21:09:15.147Z,15.98
2023-01-07T21:11:32.537Z,15.10
2023-01-07T21:13:49.600Z,17.02
2023-01-07T21:16:06.657Z,15.18
2023-01-07T21:18:23.794Z,17.10
2023-01-07T21:20:41.132Z,16.38
2023-01-07T21:22:58.140Z,19.73
2023-01-07T21:25:15.095Z,19.27
2023-01-07T21:27:32.412Z,18.33
2023-01-07T21:29:49.351Z,19.02
2023-01-07T21:32:06.817Z,23.95
2023-01-07T21:34:24.143Z,25.55
2023-01-07T21:36:41.170Z,22.40
2023-01-07T21:38:59.271Z,18.92
2023-01-07T21:41:16.280Z,18.02
2023-01-07T21:43:34.193Z,17.80
2023-01-07T21:45:54.978Z,19.45
2023-01-07T21:48:11.949Z,19.92
2023-01-07T21:50:29.031Z,23.13
2023-01-07T21:52:46.046Z,20.35
2023-01-07T21:55:05.129Z,22.55
2023-01-07T21:57:22.183Z,21.70
2023-01-07T21:59:42.437Z,21.17
2023-01-07T22:01:59.489Z,20.98
2023-01-07T22:04:16.780Z,18.35
2023-01-07T22:06:33.851Z,15.52
2023-01-07T22:08:51.047Z,18.85
2023-01-07T22:11:08.091Z,13.40
2023-01-07T22:13:25.460Z,15.13
2023-01-07T22:15:42.332Z,14.85
2023-01-07T22:18:01.621Z,15.80
2023-01-07T22:20:19.725Z,14.32
2023-01-07T22:22:36.911Z,13.43
2023-01-07T22:24:54.015Z,13.02
2023-01-07T22:27:11.070Z,13.90
2023-01-07T22:29:27.973Z,12.85
2023-01-07T22:31:46.483Z,12.27
2023-01-07T22:34:03.851Z,13.70
2023-01-07T22:36:20.960Z,13.25
2023-01-07T22:38:38.239Z,12.75
2023-01-07T22:40:55.387Z,14.65
2023-01-07T22:43:12.431Z,13.60
2023-01-07T22:45:29.874Z,12.82
2023-01-07T22:47:46.833Z,13.65
2023-01-07T22:50:03.819Z,12.27
2023-01-07T22:52:21.180Z,13.77
2023-01-07T22:54:38.191Z,11.25
2023-01-07T22:56:56.197Z,13.63
2023-01-07T22:59:13.506Z,10.52
2023-01-07T23:01:30.877Z,12.30
2023-01-07T23:03:48.378Z,12.75
2023-01-07T23:06:05.473Z,12.25
2023-01-07T23:08:28.576Z,10.50
2023-01-07T23:10:45.664Z,10.77
2023-01-07T23:13:03.565Z,11.70
2023-01-07T23:15:20.675Z,10.10
2023-01-07T23:17:38.663Z,9.20
2023-01-07T23:19:55.685Z,10.20
2023-01-07T23:22:13.057Z,9.93
2023-01-07T23:24:32.798Z,14.23
2023-01-07T23:26:51.279Z,11.30
2023-01-07T23:29:08.586Z,10.32
2023-01-07T23:31:27.025Z,12.48
2023-01-07T23:33:44.077Z,9.80
2023-01-07T23:36:02.153Z,10.57
2023-01-07T23:38:19.582Z,10.38
2023-01-07T23:40:36.659Z,8.98
2023-01-07T23:42:55.775Z,8.10
2023-01-07T23:45:13.895Z,8.23
2023-01-07T23:47:31.007Z,9.43
2023-01-07T23:49:48.170Z,8.95
2023-01-07T23:52:05.149Z,9.70
2023-01-07T23:54:22.232Z,8.35
2023-01-07T23:56:39.136Z,10.05
2023-01-07T23:59:00.583Z,8.55
